createdAt,value
2023-01-21T00:01:06.724Z,4.20
2023-01-21T00:03:36.354Z,4.30
2023-01-21T00:06:03.458Z,4.40
2023-01-21T00:08:45.802Z,4.50
2023-01-21T00:11:14.820Z,4.50
2023-01-21T00:13:42.827Z,4.40
2023-01-21T00:16:11.576Z,4.30
2023-01-21T00:18:38.400Z,4.30
2023-01-21T00:21:05.608Z,4.20
2023-01-21T00:23:32.434Z,4.20
2023-01-21T00:26:05.191Z,4.20
2023-01-21T00:28:34.159Z,4.20
2023-01-21T00:31:03.610Z,4.40
2023-01-21T00:33:31.498Z,4.50
2023-01-21T00:35:58.576Z,4.50
2023-01-21T00:38:25.690Z,4.30
2023-01-21T00:40:52.711Z,4.50
2023-01-21T00:43:19.666Z,4.70
2023-01-21T00:45:46.694Z,4.50
2023-01-21T00:48:13.605Z,4.40
2023-01-21T00:50:40.591Z,4.30
2023-01-21T00:53:07.599Z,4.30
2023-01-21T00:55:34.858Z,4.20
2023-01-21T00:58:02.032Z,4.30
2023-01-21T01:00:29.488Z,4.30
2023-01-21T01:02:56.616Z,4.20
2023-01-21T01:05:23.496Z,4.20
2023-01-21T01:07:50.654Z,4.10
2023-01-21T01:10:18.114Z,4.00
2023-01-21T01:12:45.108Z,3.80
2023-01-21T01:15:12.079Z,3.60
2023-01-21T01:17:38.962Z,3.70
2023-01-21T01:20:06.823Z,3.80
2023-01-21T01:22:33.845Z,3.80
2023-01-21T01:25:00.902Z,3.70
2023-01-21T01:27:29.628Z,3.70
2023-01-21T01:29:56.545Z,3.80
2023-01-21T01:32:23.403Z,3.70
2023-01-21T01:34:50.187Z,3.50
2023-01-21T01:37:17.268Z,3.70
2023-01-21T01:39:44.377Z,3.60
2023-01-21T01:42:17.656Z,3.50
2023-01-21T01:44:58.696Z,3.50
2023-01-21T01:47:39.773Z,3.60
2023-01-21T01:50:11.282Z,3.70
2023-01-21T01:52:39.381Z,3.60
2023-01-21T01:55:07.536Z,3.60
2023-01-21T01:57:41.823Z,3.60
2023-01-21T02:00:11.288Z,3.50
2023-01-21T02:02:40.833Z,3.40
2023-01-21T02:05:10.456Z,3.30
2023-01-21T02:07:40.914Z,3.30
2023-01-21T02:10:10.171Z,3.30
2023-01-21T02:12:38.894Z,3.40
2023-01-21T02:15:06.643Z,3.20
2023-01-21T02:17:55.469Z,3.20
2023-01-21T02:21:03.443Z,3.20
2023-01-21T02:23:49.132Z,3.20
2023-01-21T02:26:15.899Z,3.10
2023-01-21T02:28:54.804Z,2.90
2023-01-21T02:32:03.140Z,2.90
2023-01-21T02:34:43.699Z,3.10
2023-01-21T02:37:21.782Z,3.20
2023-01-21T02:40:04.268Z,3.10
2023-01-21T02:42:40.269Z,3.00
2023-01-21T02:45:25.933Z,3.00
2023-01-21T02:48:11.763Z,3.10
2023-01-21T02:50:54.026Z,3.00
2023-01-21T02:53:28.391Z,3.00
2023-01-21T02:55:59.616Z,3.00
2023-01-21T02:58:32.476Z,2.90
2023-01-21T03:01:14.944Z,3.00
2023-01-21T03:04:10.546Z,2.90
2023-01-21T03:06:56.225Z,3.10
2023-01-21T03:09:28.947Z,2.90
2023-01-21T03:12:27.538Z,2.90
2023-01-21T03:15:31.940Z,2.90
2023-01-21T03:18:08.774Z,2.90
2023-01-21T03:20:48.038Z,2.90
2023-01-21T03:23:20.292Z,2.80
2023-01-21T03:25:48.609Z,2.90
2023-01-21T03:28:21.358Z,2.80
2023-01-21T03:30:55.535Z,2.70
2023-01-21T03:33:23.429Z,2.70
2023-01-21T03:35:53.689Z,2.70
2023-01-21T03:38:31.789Z,2.60
2023-01-21T03:41:19.647Z,2.80
2023-01-21T03:43:46.689Z,2.60
2023-01-21T03:46:21.785Z,2.50
2023-01-21T03:48:57.803Z,2.50
2023-01-21T03:51:31.712Z,2.50
2023-01-21T03:54:00.137Z,2.50
2023-01-21T03:56:28.394Z,2.50
2023-01-21T03:58:55.208Z,2.50
2023-01-21T04:01:22.322Z,2.50
2023-01-21T04:03:49.404Z,2.60
2023-01-21T04:06:18.566Z,2.60
2023-01-21T04:08:45.812Z,2.70
2023-01-21T04:11:12.835Z,2.70
2023-01-21T04:13:39.914Z,2.70
2023-01-21T04:16:07.329Z,2.60
2023-01-21T04:18:34.529Z,2.50
2023-01-21T04:21:01.543Z,2.60
2023-01-21T04:23:28.444Z,2.70
2023-01-21T04:25:55.295Z,2.60
2023-01-21T04:28:22.121Z,2.60
2023-01-21T04:30:49.367Z,2.60
2023-01-21T04:33:17.027Z,2.60
2023-01-21T04:35:44.120Z,2.50
2023-01-21T04:38:11.651Z,2.70
2023-01-21T04:40:38.466Z,2.60
2023-01-21T04:43:05.342Z,2.50
2023-01-21T04:45:32.183Z,2.50
2023-01-21T04:47:59.166Z,2.50
2023-01-21T04:50:26.110Z,2.50
2023-01-21T04:52:53.127Z,2.50
2023-01-21T04:55:20.002Z,2.60
2023-01-21T04:57:46.879Z,2.50
2023-01-21T05:00:14.402Z,2.50
2023-01-21T05:02:41.310Z,2.60
2023-01-21T05:05:08.604Z,2.60
2023-01-21T05:07:35.543Z,2.50
2023-01-21T05:10:02.610Z,2.50
2023-01-21T05:12:29.595Z,2.40
2023-01-21T05:14:57.832Z,2.40
2023-01-21T05:17:25.095Z,2.20
2023-01-21T05:19:51.955Z,2.20
2023-01-21T05:22:19.020Z,2.40
2023-01-21T05:24:45.861Z,2.20
2023-01-21T05:27:12.803Z,2.30
2023-01-21T05:29:40.360Z,2.40
2023-01-21T05:32:07.202Z,2.30
2023-01-21T05:34:34.003Z,2.20
2023-01-21T05:37:00.886Z,2.30
2023-01-21T05:39:28.005Z,2.30
2023-01-21T05:41:55.029Z,2.30
2023-01-21T05:44:22.099Z,2.30
2023-01-21T05:46:48.994Z,2.30
2023-01-21T05:49:15.936Z,2.40
2023-01-21T05:51:42.898Z,2.50
2023-01-21T05:54:09.928Z,2.60
2023-01-21T05:56:37.226Z,2.50
2023-01-21T05:59:05.210Z,2.40
2023-01-21T06:01:32.130Z,2.40
2023-01-21T06:03:58.983Z,2.40
2023-01-21T06:06:25.904Z,2.40
2023-01-21T06:08:53.073Z,2.20
2023-01-21T06:11:19.900Z,2.20
2023-01-21T06:13:46.877Z,2.10
2023-01-21T06:16:13.872Z,2.20
2023-01-21T06:18:41.020Z,2.20
2023-01-21T06:21:08.129Z,2.10
2023-01-21T06:23:35.124Z,2.20
2023-01-21T06:26:03.040Z,2.10
2023-01-21T06:28:30.555Z,2.10
2023-01-21T06:30:57.607Z,1.90
2023-01-21T06:34:09.633Z,1.90
2023-01-21T06:37:38.469Z,1.90
2023-01-21T06:40:07.592Z,1.90
2023-01-21T06:42:37.142Z,1.80
2023-01-21T06:45:04.522Z,1.80
2023-01-21T06:47:31.420Z,1.90
2023-01-21T06:49:58.302Z,1.80
2023-01-21T06:52:25.455Z,1.80
2023-01-21T06:54:52.385Z,1.80
2023-01-21T06:57:19.272Z,1.80
2023-01-21T06:59:46.333Z,1.80
2023-01-21T07:02:13.401Z,1.70
2023-01-21T07:04:40.428Z,1.70
2023-01-21T07:07:07.565Z,1.80
2023-01-21T07:09:34.615Z,1.80
2023-01-21T07:12:01.666Z,1.80
2023-01-21T07:14:28.618Z,1.80
2023-01-21T07:16:55.662Z,1.80
2023-01-21T07:19:22.606Z,1.80
2023-01-21T07:21:53.709Z,1.80
2023-01-21T07:24:21.332Z,1.80
2023-01-21T07:26:49.009Z,1.90
2023-01-21T07:29:16.474Z,2.00
2023-01-21T07:31:43.758Z,2.00
2023-01-21T07:34:11.277Z,1.90
2023-01-21T07:36:38.434Z,1.80
2023-01-21T07:39:05.540Z,1.70
2023-01-21T07:41:32.800Z,1.90
2023-01-21T07:44:00.135Z,1.80
2023-01-21T07:46:27.474Z,1.80
2023-01-21T07:48:59.512Z,1.90
2023-01-21T07:51:26.576Z,1.90
2023-01-21T07:53:58.448Z,1.80
2023-01-21T07:56:26.936Z,1.90
2023-01-21T07:58:57.482Z,1.90
2023-01-21T08:01:30.093Z,2.10
2023-01-21T08:03:58.169Z,2.10
2023-01-21T08:06:25.998Z,2.30
2023-01-21T08:08:53.429Z,2.30
2023-01-21T08:11:22.638Z,2.30
2023-01-21T08:13:51.091Z,2.30
2023-01-21T08:16:18.317Z,2.30
2023-01-21T08:18:45.630Z,2.30
2023-01-21T08:21:12.694Z,2.20
2023-01-21T08:23:39.751Z,2.10
2023-01-21T08:26:07.598Z,2.10
2023-01-21T08:28:39.691Z,2.10
2023-01-21T08:31:12.179Z,2.20
2023-01-21T08:33:39.796Z,2.20
2023-01-21T08:36:08.965Z,2.40
2023-01-21T08:38:36.778Z,2.40
2023-01-21T08:41:04.614Z,2.50
2023-01-21T08:43:31.596Z,2.60
2023-01-21T08:46:01.632Z,2.60
2023-01-21T08:48:29.600Z,2.80
2023-01-21T08:51:02.085Z,2.80
2023-01-21T08:53:34.587Z,2.80
2023-01-21T08:56:03.926Z,2.80
2023-01-21T08:58:40.218Z,2.80
2023-01-21T09:01:19.967Z,2.90
2023-01-21T09:03:47.037Z,2.90
2023-01-21T09:06:14.186Z,2.90
2023-01-21T09:08:42.177Z,2.90
2023-01-21T09:11:10.121Z,3.10
2023-01-21T09:13:41.738Z,3.00
2023-01-21T09:16:14.224Z,3.10
2023-01-21T09:18:42.065Z,3.10
2023-01-21T09:21:10.460Z,3.20
2023-01-21T09:23:38.206Z,3.30
2023-01-21T09:26:06.954Z,3.30
2023-01-21T09:28:36.726Z,3.50
2023-01-21T09:31:06.578Z,3.50
2023-01-21T09:33:35.972Z,3.40
2023-01-21T09:36:07.824Z,3.50
2023-01-21T09:38:35.053Z,3.60
2023-01-21T09:41:31.151Z,3.70
2023-01-21T09:44:14.876Z,4.00
2023-01-21T09:46:46.942Z,4.10
2023-01-21T09:49:23.801Z,4.30
2023-01-21T09:51:58.909Z,4.40
2023-01-21T09:54:28.872Z,4.60
2023-01-21T09:57:25.659Z,4.80
2023-01-21T10:00:08.107Z,4.80
2023-01-21T10:02:55.614Z,5.00
2023-01-21T10:05:34.101Z,5.00
2023-01-21T10:08:24.368Z,5.20
2023-01-21T10:10:53.398Z,5.40
2023-01-21T10:13:48.002Z,5.60
2023-01-21T10:16:25.789Z,5.80
2023-01-21T10:18:54.850Z,5.90
2023-01-21T10:21:32.835Z,5.90
2023-01-21T10:24:35.013Z,6.10
2023-01-21T10:27:02.028Z,6.30
2023-01-21T10:29:29.128Z,6.20
2023-01-21T10:32:14.082Z,6.50
2023-01-21T10:34:52.503Z,6.50
2023-01-21T10:37:46.576Z,6.40
2023-01-21T10:40:41.183Z,6.60
2023-01-21T10:43:17.025Z,6.60
2023-01-21T10:45:56.186Z,6.90
2023-01-21T10:48:32.255Z,7.20
2023-01-21T10:51:06.806Z,7.40
2023-01-21T10:53:39.312Z,7.40
2023-01-21T10:56:37.592Z,7.70
2023-01-21T10:59:12.233Z,7.70
2023-01-21T11:01:45.333Z,7.70
2023-01-21T11:04:16.716Z,7.80
2023-01-21T11:06:46.457Z,7.70
2023-01-21T11:09:14.985Z,7.90
2023-01-21T11:11:43.107Z,8.10
2023-01-21T11:14:10.673Z,8.20
2023-01-21T11:16:43.924Z,8.50
2023-01-21T11:19:37.238Z,8.90
2023-01-21T11:22:06.190Z,9.00
2023-01-21T11:24:43.815Z,9.20
2023-01-21T11:27:34.276Z,9.30
2023-01-21T11:30:02.325Z,9.30
2023-01-21T11:32:31.355Z,9.30
2023-01-21T11:35:10.743Z,9.40
2023-01-21T11:37:38.580Z,9.50
2023-01-21T11:40:11.695Z,9.60
2023-01-21T11:42:50.153Z,9.90
2023-01-21T11:45:31.185Z,9.90
2023-01-21T11:47:59.477Z,9.90
2023-01-21T11:50:34.866Z,9.90
2023-01-21T11:53:08.021Z,10.10
2023-01-21T11:55:55.314Z,10.30
2023-01-21T11:58:38.313Z,10.50
2023-01-21T12:01:22.093Z,10.30
2023-01-21T12:03:53.398Z,10.60
2023-01-21T12:06:31.699Z,10.90
2023-01-21T12:09:04.718Z,11.00
2023-01-21T12:11:32.968Z,11.00
2023-01-21T12:14:38.654Z,11.00
2023-01-21T12:17:26.919Z,11.20
2023-01-21T12:20:08.501Z,10.90
2023-01-21T12:22:48.414Z,11.30
2023-01-21T12:25:23.450Z,11.30
2023-01-21T12:28:08.148Z,10.90
2023-01-21T12:31:06.172Z,11.30
2023-01-21T12:33:35.998Z,11.40
2023-01-21T12:36:32.169Z,11.50
2023-01-21T12:39:21.295Z,11.40
2023-01-21T12:42:05.060Z,10.60
2023-01-21T12:44:46.917Z,10.40
2023-01-21T12:48:07.165Z,10.30
2023-01-21T12:50:45.910Z,10.60
2023-01-21T12:53:20.080Z,10.40
2023-01-21T12:56:14.507Z,10.80
2023-01-21T12:59:00.055Z,10.90
2023-01-21T13:01:54.797Z,10.90
2023-01-21T13:04:25.461Z,10.90
2023-01-21T13:07:12.543Z,10.70
2023-01-21T13:10:07.978Z,10.60
2023-01-21T13:12:37.870Z,10.50
2023-01-21T13:15:28.316Z,10.60
2023-01-21T13:18:01.499Z,10.40
2023-01-21T13:20:31.133Z,10.30
2023-01-21T13:23:29.527Z,10.20
2023-01-21T13:26:34.920Z,10.10
2023-01-21T13:29:24.494Z,10.50
2023-01-21T13:32:20.435Z,10.40
2023-01-21T13:35:11.045Z,10.40
2023-01-21T13:37:58.356Z,10.50
2023-01-21T13:40:31.803Z,10.40
2023-01-21T13:43:11.677Z,10.50
2023-01-21T13:45:44.672Z,10.50
2023-01-21T13:48:39.166Z,10.40
2023-01-21T13:51:22.690Z,10.30
2023-01-21T13:54:20.569Z,10.60
2023-01-21T13:57:08.213Z,10.40
2023-01-21T13:59:46.206Z,10.60
2023-01-21T14:02:28.959Z,10.40
2023-01-21T14:05:16.491Z,10.30
2023-01-21T14:07:52.984Z,10.60
2023-01-21T14:10:33.584Z,10.50
2023-01-21T14:13:31.884Z,10.10
2023-01-21T14:16:20.625Z,10.30
2023-01-21T14:18:50.820Z,9.90
2023-01-21T14:21:50.737Z,9.60
2023-01-21T14:24:17.686Z,9.80
2023-01-21T14:27:00.667Z,9.90
2023-01-21T14:29:41.057Z,9.90
2023-01-21T14:32:34.455Z,9.90
2023-01-21T14:35:01.355Z,9.90
2023-01-21T14:37:37.967Z,9.90
2023-01-21T14:40:34.727Z,10.00
2023-01-21T14:43:03.667Z,10.00
2023-01-21T14:45:52.511Z,9.90
2023-01-21T14:48:29.816Z,9.70
2023-01-21T14:51:13.279Z,9.60
2023-01-21T14:53:51.475Z,9.60
2023-01-21T14:56:26.658Z,9.50
2023-01-21T14:59:08.549Z,9.70
2023-01-21T15:01:43.552Z,9.70
2023-01-21T15:04:29.710Z,9.90
2023-01-21T15:07:01.152Z,9.40
2023-01-21T15:09:35.899Z,9.10
2023-01-21T15:12:11.668Z,9.10
2023-01-21T15:14:41.730Z,8.80
2023-01-21T15:17:50.253Z,8.50
2023-01-21T15:20:50.580Z,8.40
2023-01-21T15:23:30.207Z,8.20
2023-01-21T15:26:32.609Z,7.90
2023-01-21T15:29:22.959Z,8.00
2023-01-21T15:31:50.091Z,7.80
2023-01-21T15:34:21.384Z,7.80
2023-01-21T15:36:53.436Z,7.50
2023-01-21T15:39:29.210Z,7.20
2023-01-21T15:42:03.839Z,7.30
2023-01-21T15:44:49.570Z,7.00
2023-01-21T15:47:53.221Z,6.90
2023-01-21T15:50:29.677Z,6.80
2023-01-21T15:53:23.882Z,6.60
2023-01-21T15:55:50.889Z,6.60
2023-01-21T15:58:46.465Z,6.70
2023-01-21T16:01:25.812Z,6.60
2023-01-21T16:03:59.024Z,6.40
2023-01-21T16:06:49.314Z,6.30
2023-01-21T16:09:37.372Z,6.10
2023-01-21T16:12:22.827Z,6.00
2023-01-21T16:14:56.134Z,5.90
2023-01-21T16:17:36.531Z,5.90
2023-01-21T16:20:07.295Z,5.70
2023-01-21T16:22:38.576Z,5.60
2023-01-21T16:25:10.757Z,5.50
2023-01-21T16:27:44.928Z,5.50
2023-01-21T16:30:19.971Z,5.40
2023-01-21T16:32:47.227Z,5.40
2023-01-21T16:35:14.316Z,5.00
2023-01-21T16:37:45.548Z,4.70
2023-01-21T16:40:19.234Z,4.70
2023-01-21T16:42:46.376Z,4.60
2023-01-21T16:45:26.195Z,4.70
2023-01-21T16:47:57.014Z,4.70
2023-01-21T16:50:27.444Z,4.60
2023-01-21T16:52:58.638Z,4.40
2023-01-21T16:55:28.359Z,4.20
2023-01-21T16:58:01.409Z,4.10
2023-01-21T17:00:31.654Z,4.10
2023-01-21T17:03:06.488Z,4.00
2023-01-21T17:05:35.562Z,3.90
2023-01-21T17:08:09.305Z,3.70
2023-01-21T17:10:51.511Z,3.80
2023-01-21T17:13:18.738Z,3.80
2023-01-21T17:15:58.163Z,3.70
2023-01-21T17:18:27.962Z,3.70
2023-01-21T17:21:15.546Z,3.70
2023-01-21T17:23:51.055Z,3.70
2023-01-21T17:26:23.906Z,3.70
2023-01-21T17:29:07.841Z,3.80
2023-01-21T17:31:41.411Z,3.80
2023-01-21T17:34:17.174Z,3.80
2023-01-21T17:36:46.790Z,3.70
2023-01-21T17:39:14.351Z,3.60
2023-01-21T17:41:44.274Z,3.60
2023-01-21T17:44:21.515Z,3.60
2023-01-21T17:46:53.535Z,3.50
2023-01-21T17:49:23.592Z,3.40
2023-01-21T17:51:52.762Z,3.30
2023-01-21T17:54:29.440Z,3.30
2023-01-21T17:57:03.266Z,3.50
2023-01-21T17:59:41.682Z,3.50
2023-01-21T18:02:13.820Z,3.50
2023-01-21T18:04:41.292Z,3.70
2023-01-21T18:07:30.105Z,3.70
2023-01-21T18:10:04.827Z,3.70
2023-01-21T18:12:31.736Z,3.60
2023-01-21T18:14:58.799Z,3.50
2023-01-21T18:17:25.993Z,3.60
2023-01-21T18:19:53.767Z,3.70
2023-01-21T18:22:27.165Z,3.80
2023-01-21T18:24:54.570Z,3.80
2023-01-21T18:27:25.729Z,3.70
2023-01-21T18:29:53.606Z,3.80
2023-01-21T18:32:20.887Z,3.80
2023-01-21T18:34:47.884Z,3.80
2023-01-21T18:37:17.390Z,3.80
2023-01-21T18:39:44.275Z,3.80
2023-01-21T18:42:14.138Z,3.50
2023-01-21T18:44:41.664Z,3.30
2023-01-21T18:47:13.591Z,3.40
2023-01-21T18:49:41.050Z,3.30
2023-01-21T18:52:10.720Z,3.30
2023-01-21T18:54:37.664Z,3.50
2023-01-21T18:57:10.711Z,3.50
2023-01-21T18:59:38.094Z,3.60
2023-01-21T19:02:14.611Z,3.70
2023-01-21T19:04:41.580Z,3.60
2023-01-21T19:07:16.324Z,3.60
2023-01-21T19:09:51.115Z,3.60
2023-01-21T19:12:21.283Z,3.60
2023-01-21T19:14:48.882Z,3.50
2023-01-21T19:17:27.845Z,3.60
2023-01-21T19:19:55.736Z,3.50
2023-01-21T19:22:26.217Z,3.40
2023-01-21T19:24:53.312Z,3.60
2023-01-21T19:27:30.435Z,3.50
2023-01-21T19:29:57.900Z,3.40
2023-01-21T19:32:25.167Z,3.40
2023-01-21T19:34:52.147Z,3.20
2023-01-21T19:37:23.435Z,3.40
2023-01-21T19:39:50.408Z,3.20
2023-01-21T19:42:18.105Z,3.30
2023-01-21T19:44:50.462Z,3.20
2023-01-21T19:47:24.968Z,3.30
2023-01-21T19:49:52.188Z,3.40
2023-01-21T19:52:19.265Z,3.30
2023-01-21T19:54:46.244Z,3.30
2023-01-21T19:57:17.157Z,3.30
2023-01-21T19:59:45.310Z,3.30
2023-01-21T20:02:12.734Z,3.30
2023-01-21T20:04:39.859Z,3.30
2023-01-21T20:07:07.390Z,3.20
2023-01-21T20:09:34.301Z,3.10
2023-01-21T20:12:03.431Z,3.30
2023-01-21T20:14:33.265Z,3.40
2023-01-21T20:17:00.122Z,3.30
2023-01-21T20:19:27.127Z,3.00
2023-01-21T20:22:02.118Z,3.10
2023-01-21T20:24:30.608Z,3.20
2023-01-21T20:26:58.664Z,3.10
2023-01-21T20:29:27.092Z,3.20
2023-01-21T20:31:54.497Z,3.20
2023-01-21T20:34:24.617Z,3.20
2023-01-21T20:36:51.903Z,3.30
2023-01-21T20:39:19.213Z,3.20
2023-01-21T20:41:46.026Z,3.20
2023-01-21T20:44:12.811Z,3.20
2023-01-21T20:46:40.113Z,3.00
2023-01-21T20:49:07.225Z,3.20
2023-01-21T20:51:34.028Z,3.20
2023-01-21T20:54:00.884Z,3.20
2023-01-21T20:56:30.772Z,3.30
2023-01-21T20:58:59.336Z,3.30
2023-01-21T21:01:27.316Z,3.40
2023-01-21T21:03:54.302Z,3.40
2023-01-21T21:06:25.111Z,3.40
2023-01-21T21:08:52.532Z,3.30
2023-01-21T21:11:19.604Z,3.30
2023-01-21T21:13:52.560Z,3.20
2023-01-21T21:16:28.686Z,3.10
2023-01-21T21:18:56.323Z,3.10
2023-01-21T21:21:24.308Z,3.10
2023-01-21T21:23:52.637Z,3.10
2023-01-21T21:26:25.506Z,3.00
2023-01-21T21:28:57.709Z,3.00
2023-01-21T21:31:30.168Z,2.90
2023-01-21T21:33:57.135Z,2.80
2023-01-21T21:36:25.032Z,2.70
2023-01-21T21:38:55.935Z,2.60
2023-01-21T21:41:44.037Z,2.80
2023-01-21T21:44:11.375Z,2.80
2023-01-21T21:46:57.191Z,2.80
2023-01-21T21:49:24.790Z,2.60
2023-01-21T21:51:51.936Z,2.70
2023-01-21T21:54:19.218Z,2.70
2023-01-21T21:56:47.494Z,2.70
2023-01-21T21:59:15.321Z,2.40
2023-01-21T22:01:44.175Z,2.50
2023-01-21T22:04:11.624Z,2.70
2023-01-21T22:06:38.853Z,2.70
2023-01-21T22:09:06.433Z,2.70
2023-01-21T22:11:33.338Z,2.70
2023-01-21T22:14:04.474Z,2.50
2023-01-21T22:16:32.386Z,2.50
2023-01-21T22:19:00.640Z,2.50
2023-01-21T22:21:31.859Z,2.40
2023-01-21T22:23:59.380Z,2.40
2023-01-21T22:26:27.110Z,2.50
2023-01-21T22:28:54.056Z,2.40
2023-01-21T22:31:26.641Z,2.30
2023-01-21T22:33:54.078Z,2.30
2023-01-21T22:36:23.363Z,2.30
2023-01-21T22:38:50.883Z,2.40
2023-01-21T22:41:20.100Z,2.40
2023-01-21T22:43:50.849Z,2.60
2023-01-21T22:46:23.530Z,2.70
2023-01-21T22:48:50.761Z,2.80
2023-01-21T22:51:19.640Z,2.80
2023-01-21T22:53:47.910Z,2.70
2023-01-21T22:56:17.114Z,2.70
2023-01-21T22:58:45.062Z,2.60
2023-01-21T23:01:31.501Z,2.40
2023-01-21T23:03:59.854Z,2.40
2023-01-21T23:06:27.200Z,2.50
2023-01-21T23:08:54.501Z,2.50
2023-01-21T23:11:21.618Z,2.60
2023-01-21T23:13:53.335Z,2.50
2023-01-21T23:16:21.250Z,2.40
2023-01-21T23:18:48.838Z,2.30
2023-01-21T23:21:21.109Z,2.40
2023-01-21T23:23:48.809Z,2.30
2023-01-21T23:26:18.310Z,2.30
2023-01-21T23:28:45.988Z,2.30
2023-01-21T23:31:15.536Z,2.30
2023-01-21T23:33:43.170Z,2.10
2023-01-21T23:36:13.033Z,2.30
2023-01-21T23:38:41.276Z,2.40
2023-01-21T23:41:10.452Z,2.60
2023-01-21T23:43:37.690Z,2.50
2023-01-21T23:46:06.671Z,2.70
2023-01-21T23:48:33.475Z,2.70
2023-01-21T23:51:05.169Z,2.60
2023-01-21T23:53:33.569Z,2.60
2023-01-21T23:56:24.991Z,2.60
2023-01-21T23:58:52.630Z,2.50
